Time;durP1;ratioP1;P1;durP2;ratioP2;P2;SDS_P1;SDS_P2;PMS_P1;PMS_P2;Temp;Humidity;BMP_temperature;BMP_pressure;BME280_temperature;BME280_humidity;BME280_pressure;Samples;Min_cycle;Max_cycle;Signal;HPM_P1;HPM_P2
2022/07/01 00:01:43;;;;;;;4.43;1.30;;;15.50;99.90;;;;;;5055464;28;20517;-72
2022/07/01 00:04:10;;;;;;;5.43;1.08;;;15.50;99.90;;;;;;5063520;28;20062;-72
2022/07/01 00:06:37;;;;;;;4.53;1.70;;;15.50;99.90;;;;;;5056282;28;20049;-72
2022/07/01 00:09:04;;;;;;;1.98;1.00;;;15.50;99.90;;;;;;5056442;28;20040;-72
2022/07/01 00:11:30;;;;;;;4.20;1.63;;;15.50;99.90;;;;;;5060650;28;20083;-72
2022/07/01 00:13:56;;;;;;;2.92;1.30;;;15.40;99.90;;;;;;5054136;28;20040;-72
2022/07/01 00:16:22;;;;;;;4.28;1.70;;;15.40;99.90;;;;;;5053280;28;20113;-71
2022/07/01 00:18:48;;;;;;;3.60;1.48;;;15.50;99.90;;;;;;5071378;28;20047;-71
2022/07/01 00:21:15;;;;;;;3.45;1.75;;;15.40;99.90;;;;;;5073618;28;20437;-72
2022/07/01 00:23:42;;;;;;;3.13;1.50;;;15.40;99.90;;;;;;5058947;28;20043;-72
2022/07/01 00:26:08;;;;;;;3.95;1.58;;;15.40;99.90;;;;;;5062365;28;20052;-72
2022/07/01 00:28:33;;;;;;;3.83;1.85;;;15.40;99.90;;;;;;5059834;28;20037;-71
2022/07/01 00:30:59;;;;;;;3.72;1.90;;;15.40;99.90;;;;;;5062294;28;20480;-72
2022/07/01 00:33:25;;;;;;;6.90;2.15;;;15.40;99.90;;;;;;5055078;28;20768;-73
2022/07/01 00:35:52;;;;;;;5.75;2.40;;;15.50;99.90;;;;;;5066863;28;20047;-72
2022/07/01 00:38:18;;;;;;;6.05;2.10;;;15.40;99.90;;;;;;5065989;28;20294;-71
2022/07/01 00:40:43;;;;;;;3.30;2.03;;;15.40;99.90;;;;;;5062761;28;20695;-72
2022/07/01 00:43:09;;;;;;;7.90;2.33;;;15.40;99.90;;;;;;5061900;28;20032;-72
2022/07/01 00:45:34;;;;;;;3.45;1.63;;;15.40;99.90;;;;;;5059879;28;20060;-72
2022/07/01 00:48:00;;;;;;;4.82;1.85;;;15.40;99.90;;;;;;5057770;28;20438;-72
2022/07/01 00:50:26;;;;;;;4.65;1.60;;;15.40;99.90;;;;;;5058343;28;20049;-72
2022/07/01 00:52:52;;;;;;;5.13;1.90;;;15.30;99.90;;;;;;5058031;28;20400;-72
2022/07/01 00:55:18;;;;;;;4.32;1.80;;;15.40;99.90;;;;;;5058736;28;20124;-72
2022/07/01 00:57:44;;;;;;;6.68;1.67;;;15.40;99.90;;;;;;5055036;28;20048;-72
2022/07/01 01:00:22;;;;;;;4.05;1.90;;;15.40;99.90;;;;;;5049990;28;20368;-72
2022/07/01 01:02:48;;;;;;;4.13;1.75;;;15.40;99.90;;;;;;5050401;28;20045;-72
2022/07/01 01:05:14;;;;;;;4.88;2.22;;;15.40;99.90;;;;;;5053830;28;20516;-72
2022/07/01 01:07:40;;;;;;;7.45;2.35;;;15.40;99.90;;;;;;5057480;28;20045;-72
2022/07/01 01:10:06;;;;;;;4.05;2.17;;;15.30;99.90;;;;;;5064712;28;20048;-71
2022/07/01 01:12:33;;;;;;;4.65;2.60;;;15.30;99.90;;;;;;5063005;28;20049;-72
2022/07/01 01:14:59;;;;;;;3.78;2.35;;;15.40;99.90;;;;;;5060392;28;20051;-72
2022/07/01 01:17:26;;;;;;;3.85;2.40;;;15.30;99.90;;;;;;5062964;28;20456;-73
2022/07/01 01:19:53;;;;;;;8.05;3.22;;;15.40;99.90;;;;;;5065127;28;20056;-71
2022/07/01 01:22:19;;;;;;;5.68;2.10;;;15.30;99.90;;;;;;5063601;28;20124;-72
2022/07/01 01:24:47;;;;;;;6.15;3.17;;;15.40;99.90;;;;;;5056617;28;20135;-72
2022/07/01 01:27:13;;;;;;;4.40;2.60;;;15.30;99.90;;;;;;5061695;28;20088;-72
2022/07/01 01:29:40;;;;;;;5.55;3.08;;;15.40;99.90;;;;;;5060827;28;20410;-72
2022/07/01 01:32:07;;;;;;;5.00;2.75;;;15.40;99.90;;;;;;5063549;28;20048;-71
2022/07/01 01:34:33;;;;;;;8.18;3.78;;;15.40;99.90;;;;;;5062342;28;20052;-72
2022/07/01 01:36:59;;;;;;;7.65;3.30;;;15.40;99.90;;;;;;5062735;28;20067;-72
2022/07/01 01:39:25;;;;;;;5.53;3.58;;;15.40;99.90;;;;;;5058287;28;20053;-72
2022/07/01 01:41:51;;;;;;;9.48;4.10;;;15.40;99.90;;;;;;5063157;28;20044;-72
2022/07/01 01:44:18;;;;;;;5.53;3.72;;;15.40;99.90;;;;;;5061648;28;20067;-72
2022/07/01 01:46:44;;;;;;;5.93;3.60;;;15.40;99.90;;;;;;5066189;28;20487;-72
2022/07/01 01:49:10;;;;;;;8.48;3.28;;;15.40;99.90;;;;;;5058136;28;20062;-73
2022/07/01 01:51:36;;;;;;;5.78;3.17;;;15.40;99.90;;;;;;5065997;28;20063;-72
2022/07/01 01:54:01;;;;;;;7.30;3.40;;;15.50;99.90;;;;;;5057948;28;20045;-72
2022/07/01 01:56:27;;;;;;;4.70;3.30;;;15.40;99.90;;;;;;5064860;28;20149;-72
2022/07/01 01:58:53;;;;;;;5.85;3.75;;;15.50;99.90;;;;;;5065084;28;20127;-73
2022/07/01 02:01:19;;;;;;;10.63;3.35;;;15.40;99.90;;;;;;5059684;28;20482;-71
2022/07/01 02:03:46;;;;;;;6.38;3.80;;;15.40;99.90;;;;;;5064059;28;20154;-71
2022/07/01 02:06:14;;;;;;;6.18;3.13;;;15.40;99.90;;;;;;5060249;28;20093;-72
2022/07/01 02:08:41;;;;;;;5.97;3.78;;;15.40;99.90;;;;;;5060493;28;20075;-71
2022/07/01 02:11:07;;;;;;;7.57;3.53;;;15.40;99.90;;;;;;5065620;28;20080;-71
2022/07/01 02:13:33;;;;;;;5.78;3.72;;;15.40;99.90;;;;;;5052877;28;20051;-71
2022/07/01 02:15:59;;;;;;;7.10;4.00;;;15.40;99.90;;;;;;5067377;28;20048;-71
2022/07/01 02:18:25;;;;;;;8.45;5.22;;;15.30;99.90;;;;;;5064745;28;20075;-72
2022/07/01 02:20:51;;;;;;;6.60;4.00;;;15.30;99.90;;;;;;5064514;28;20048;-72
2022/07/01 02:23:17;;;;;;;5.43;3.83;;;15.20;99.90;;;;;;5060904;28;20052;-71
2022/07/01 02:25:43;;;;;;;5.32;4.15;;;15.20;99.90;;;;;;5051419;28;20521;-72
2022/07/01 02:28:09;;;;;;;5.57;3.60;;;15.20;99.90;;;;;;5053167;28;20039;-71
2022/07/01 02:30:36;;;;;;;4.10;3.33;;;15.10;99.90;;;;;;5055456;28;20049;-71
2022/07/01 02:33:05;;;;;;;5.20;4.10;;;15.10;99.90;;;;;;5057713;28;20396;-71
2022/07/01 02:35:33;;;;;;;5.45;3.80;;;15.10;99.90;;;;;;5061759;28;20135;-72
2022/07/01 02:37:59;;;;;;;6.82;3.88;;;15.10;99.90;;;;;;5065979;28;20617;-72
2022/07/01 02:40:25;;;;;;;5.40;4.10;;;15.10;99.90;;;;;;5066784;28;20052;-71
2022/07/01 02:42:51;;;;;;;4.47;3.67;;;15.10;99.90;;;;;;5062510;28;20080;-72
2022/07/01 02:45:16;;;;;;;5.45;4.32;;;15.10;99.90;;;;;;5061477;28;20088;-73
2022/07/01 02:47:42;;;;;;;5.72;4.53;;;15.10;99.90;;;;;;5065278;28;20517;-72
2022/07/01 02:50:10;;;;;;;10.35;4.70;;;15.10;99.90;;;;;;5055324;28;20045;-72
2022/07/01 02:52:38;;;;;;;7.50;4.60;;;15.00;99.90;;;;;;5054421;28;20049;-72
2022/07/01 02:55:06;;;;;;;6.90;4.40;;;15.00;99.90;;;;;;5060014;28;20087;-72
2022/07/01 02:57:32;;;;;;;7.25;5.30;;;15.10;99.90;;;;;;5057294;28;20044;-72
2022/07/01 02:59:58;;;;;;;10.63;4.82;;;15.00;99.90;;;;;;5060215;28;20552;-71
2022/07/01 03:02:24;;;;;;;8.40;6.68;;;15.00;99.90;;;;;;5054543;28;20033;-72
2022/07/01 03:04:50;;;;;;;9.18;6.40;;;15.10;99.90;;;;;;5058931;28;20068;-72
2022/07/01 03:07:17;;;;;;;11.60;7.70;;;15.00;99.90;;;;;;5054576;28;20044;-71
2022/07/01 03:09:43;;;;;;;8.10;6.57;;;15.00;99.90;;;;;;5062379;28;20040;-72
2022/07/01 03:12:25;;;;;;;9.48;6.80;;;15.00;99.90;;;;;;5065107;28;20924;-72
2022/07/01 03:15:05;;;;;;;9.13;5.80;;;15.00;99.90;;;;;;5065361;28;20101;-72
2022/07/01 03:17:32;;;;;;;9.23;6.72;;;14.90;99.90;;;;;;5064596;28;20488;-72
2022/07/01 03:19:59;;;;;;;10.98;6.55;;;15.00;99.90;;;;;;5058649;28;20051;-72
2022/07/01 03:22:27;;;;;;;8.65;6.40;;;14.90;99.90;;;;;;5064743;28;20044;-73
2022/07/01 03:24:53;;;;;;;10.23;6.32;;;14.90;99.90;;;;;;5061453;28;20041;-72
2022/07/01 03:27:20;;;;;;;9.63;5.82;;;14.90;99.90;;;;;;5060731;28;20507;-73
2022/07/01 03:29:46;;;;;;;7.80;5.78;;;14.90;99.90;;;;;;5053731;28;20071;-72
2022/07/01 03:32:12;;;;;;;9.88;5.72;;;14.90;99.90;;;;;;5060042;28;20101;-73
2022/07/01 03:34:39;;;;;;;12.98;5.85;;;14.80;99.90;;;;;;5065935;28;20056;-72
2022/07/01 03:37:06;;;;;;;8.60;5.57;;;14.80;99.90;;;;;;5051483;28;20052;-71
2022/07/01 03:39:33;;;;;;;11.93;6.03;;;14.80;99.90;;;;;;5061710;28;20048;-72
2022/07/01 03:41:59;;;;;;;8.90;5.47;;;14.80;99.90;;;;;;5064846;28;20036;-72
2022/07/01 03:44:24;;;;;;;11.18;6.80;;;14.80;99.90;;;;;;5057728;28;20052;-72
2022/07/01 03:46:50;;;;;;;11.32;5.47;;;14.80;99.90;;;;;;5062300;28;20118;-72
2022/07/01 03:49:16;;;;;;;12.63;5.57;;;14.80;99.90;;;;;;5066729;28;20040;-72
2022/07/01 03:51:42;;;;;;;9.60;5.25;;;14.80;99.90;;;;;;5060132;28;20370;-73
2022/07/01 03:56:52;;;;;;;10.55;5.03;;;14.70;99.90;;;;;;5066151;28;20041;-72
2022/07/01 03:59:17;;;;;;;8.80;5.00;;;14.80;99.90;;;;;;5067746;28;20060;-72
2022/07/01 04:01:43;;;;;;;7.40;3.90;;;14.70;99.90;;;;;;5063944;28;20037;-72
2022/07/01 04:04:08;;;;;;;7.13;4.40;;;14.70;99.90;;;;;;5066348;28;20045;-72
2022/07/01 04:06:35;;;;;;;7.57;3.95;;;14.80;99.90;;;;;;5059281;28;20045;-72
2022/07/01 04:09:01;;;;;;;8.48;3.65;;;14.80;99.90;;;;;;5065605;28;20056;-72
2022/07/01 04:11:27;;;;;;;9.02;4.05;;;14.80;99.90;;;;;;5063494;28;20044;-73
2022/07/01 04:13:53;;;;;;;7.75;3.30;;;14.80;99.90;;;;;;5066246;28;20076;-72
2022/07/01 04:16:20;;;;;;;7.20;3.20;;;14.80;99.90;;;;;;5055593;28;20120;-72
2022/07/01 04:18:46;;;;;;;8.35;2.90;;;14.80;99.90;;;;;;5065671;28;20124;-72
2022/07/01 04:23:59;;;;;;;5.15;2.50;;;14.80;99.90;;;;;;5053308;28;20116;-73
2022/07/01 04:26:25;;;;;;;10.43;2.33;;;14.80;99.90;;;;;;5062900;28;20087;-73
2022/07/01 04:28:54;;;;;;;7.18;2.20;;;14.80;99.90;;;;;;5060669;28;20028;-73
2022/07/01 04:31:20;;;;;;;7.68;2.50;;;14.80;99.90;;;;;;5062840;28;20047;-73
2022/07/01 04:33:49;;;;;;;6.95;2.90;;;14.80;99.90;;;;;;5066228;28;20037;-73
2022/07/01 04:36:15;;;;;;;9.80;2.28;;;14.80;99.90;;;;;;5059623;28;20064;-73
2022/07/01 04:38:41;;;;;;;9.20;2.67;;;14.80;99.90;;;;;;5060385;28;20071;-74
2022/07/01 04:43:51;;;;;;;8.07;2.28;;;14.80;99.90;;;;;;5065312;28;20052;-72
2022/07/01 04:46:17;;;;;;;8.82;2.38;;;14.80;99.90;;;;;;5067415;28;20044;-71
2022/07/01 04:48:42;;;;;;;6.88;2.25;;;14.80;99.90;;;;;;5067140;28;20044;-72
2022/07/01 04:51:08;;;;;;;10.43;2.50;;;14.80;99.90;;;;;;5061125;28;20499;-71
2022/07/01 04:53:34;;;;;;;6.68;2.70;;;14.80;99.90;;;;;;5069331;28;20106;-72
2022/07/01 04:56:00;;;;;;;7.07;2.65;;;14.80;99.90;;;;;;5060943;28;20052;-73
2022/07/01 04:58:25;;;;;;;6.78;2.15;;;14.90;99.90;;;;;;5056734;28;20044;-74
2022/07/01 05:00:52;;;;;;;8.35;3.22;;;14.80;99.90;;;;;;5057219;28;20698;-72
2022/07/01 05:03:18;;;;;;;9.82;2.83;;;14.80;99.90;;;;;;5056770;28;20064;-71
2022/07/01 05:05:43;;;;;;;7.68;2.63;;;14.90;99.90;;;;;;5064357;28;20071;-72
2022/07/01 05:08:09;;;;;;;7.00;2.47;;;14.90;99.90;;;;;;5052707;28;20091;-72
2022/07/01 05:10:35;;;;;;;10.50;3.38;;;14.90;99.90;;;;;;5059242;28;20097;-73
2022/07/01 05:13:00;;;;;;;8.15;2.75;;;14.90;99.90;;;;;;5067549;28;20047;-73
2022/07/01 05:15:26;;;;;;;8.32;3.40;;;15.00;99.90;;;;;;5057292;28;20621;-72
2022/07/01 05:23:20;;;;;;;9.80;3.92;;;15.20;99.90;;;;;;5065422;28;20818;-72
2022/07/01 05:25:46;;;;;;;9.73;4.00;;;15.20;99.90;;;;;;5052046;28;20044;-71
2022/07/01 05:28:12;;;;;;;13.25;4.63;;;15.20;99.90;;;;;;5055589;28;21559;-72
2022/07/01 05:30:38;;;;;;;14.23;5.65;;;15.30;99.90;;;;;;5062596;28;20250;-74
2022/07/01 05:33:03;;;;;;;15.82;6.25;;;15.30;99.90;;;;;;5062743;28;20075;-73
2022/07/01 05:35:30;;;;;;;10.52;6.93;;;15.30;99.90;;;;;;5066004;28;20052;-72
2022/07/01 05:37:56;;;;;;;16.70;8.38;;;15.30;99.90;;;;;;5064429;28;20043;-72
2022/07/01 05:40:22;;;;;;;17.48;8.30;;;15.40;99.90;;;;;;5058429;28;20064;-72
2022/07/01 05:42:48;;;;;;;19.40;9.23;;;15.40;99.90;;;;;;5063627;28;20064;-72
2022/07/01 05:45:14;;;;;;;16.95;9.15;;;15.50;99.90;;;;;;5052138;28;20129;-70
2022/07/01 05:47:40;;;;;;;22.17;10.18;;;15.50;99.90;;;;;;5069561;28;20064;-71
2022/07/01 05:50:06;;;;;;;15.02;9.45;;;15.60;99.90;;;;;;5055851;28;20576;-70
2022/07/01 05:52:32;;;;;;;16.73;10.55;;;15.60;99.90;;;;;;5062564;28;20124;-69
2022/07/01 05:54:58;;;;;;;14.40;9.85;;;15.60;99.90;;;;;;5059418;28;20132;-69
2022/07/01 05:57:23;;;;;;;20.42;10.35;;;15.60;99.90;;;;;;5064638;28;20036;-70
2022/07/01 05:59:49;;;;;;;16.85;10.82;;;15.60;99.90;;;;;;5064325;28;20044;-71
2022/07/01 06:02:15;;;;;;;16.38;9.82;;;15.70;99.90;;;;;;5062331;28;20047;-70
2022/07/01 06:04:43;;;;;;;17.13;10.15;;;15.70;99.90;;;;;;5054185;28;20052;-70
2022/07/01 06:07:12;;;;;;;22.05;10.52;;;15.70;99.90;;;;;;5060054;28;20044;-70
2022/07/01 06:09:38;;;;;;;18.58;10.20;;;15.70;99.90;;;;;;5059598;28;20037;-70
2022/07/01 06:12:05;;;;;;;13.98;9.65;;;15.80;99.90;;;;;;5059866;28;20037;-70
2022/07/01 06:14:31;;;;;;;21.73;11.55;;;15.80;99.90;;;;;;5060799;28;20540;-70
2022/07/01 06:16:57;;;;;;;18.17;10.68;;;15.70;99.90;;;;;;5059464;28;20040;-70
2022/07/01 06:19:22;;;;;;;17.73;10.63;;;15.80;99.90;;;;;;5061683;28;20403;-71
2022/07/01 06:21:48;;;;;;;19.75;10.10;;;15.80;99.90;;;;;;5060177;28;20044;-70
2022/07/01 06:24:17;;;;;;;19.30;10.93;;;15.80;99.90;;;;;;5058167;28;20040;-72
2022/07/01 06:26:42;;;;;;;18.42;10.00;;;15.80;99.90;;;;;;5058644;28;20040;-77
2022/07/01 06:29:08;;;;;;;16.88;9.18;;;15.90;99.90;;;;;;5055561;28;20045;-70
2022/07/01 06:31:35;;;;;;;17.92;8.70;;;15.80;99.90;;;;;;5055556;28;20053;-71
2022/07/01 06:34:01;;;;;;;17.35;8.70;;;15.90;99.90;;;;;;5050771;28;20071;-69
2022/07/01 06:36:27;;;;;;;19.90;8.63;;;15.90;99.90;;;;;;5050384;28;20546;-70
2022/07/01 06:38:52;;;;;;;18.52;8.00;;;15.90;99.90;;;;;;5050410;28;20087;-71
2022/07/01 06:41:27;;;;;;;15.38;7.80;;;15.90;99.90;;;;;;5048857;28;20045;-71
2022/07/01 06:44:00;;;;;;;13.75;7.20;;;15.90;99.90;;;;;;5048356;28;20048;-71
2022/07/01 06:46:27;;;;;;;16.70;6.75;;;16.00;99.90;;;;;;5056146;28;20079;-70
2022/07/01 06:48:52;;;;;;;18.00;6.90;;;16.00;99.90;;;;;;5053889;28;20064;-71
2022/07/01 06:51:18;;;;;;;14.10;6.60;;;16.10;99.90;;;;;;5052780;28;20139;-71
2022/07/01 06:53:46;;;;;;;12.38;5.47;;;16.10;99.90;;;;;;5046789;28;20060;-70
2022/07/01 06:56:12;;;;;;;11.77;4.75;;;16.10;99.90;;;;;;5040809;28;20044;-70
2022/07/01 06:58:38;;;;;;;12.95;5.28;;;16.10;99.90;;;;;;5045855;28;20075;-70
2022/07/01 07:01:04;;;;;;;18.90;6.38;;;16.20;99.90;;;;;;5048738;28;20291;-68
2022/07/01 07:03:32;;;;;;;15.57;5.25;;;16.20;99.90;;;;;;5055600;28;20324;-69
2022/07/01 07:06:00;;;;;;;14.82;5.13;;;16.30;99.90;;;;;;5049608;28;20465;-70
2022/07/01 07:08:26;;;;;;;13.73;4.95;;;16.40;99.90;;;;;;5056657;28;20045;-70
2022/07/01 07:10:52;;;;;;;13.93;5.10;;;16.40;99.90;;;;;;5054015;28;20102;-70
2022/07/01 07:13:18;;;;;;;16.15;4.95;;;16.60;99.90;;;;;;5060062;28;20048;-70
2022/07/01 07:15:44;;;;;;;15.50;4.63;;;16.60;99.90;;;;;;5056897;28;20463;-70
2022/07/01 07:18:10;;;;;;;11.40;4.40;;;16.70;99.90;;;;;;5057105;28;20131;-68
2022/07/01 07:20:35;;;;;;;15.98;4.82;;;16.80;99.90;;;;;;5058186;28;20905;-69
2022/07/01 07:23:01;;;;;;;15.85;4.38;;;16.90;99.90;;;;;;5062012;28;20106;-67
2022/07/01 07:25:27;;;;;;;11.07;3.92;;;17.00;99.90;;;;;;5058295;28;20442;-68
2022/07/01 07:27:53;;;;;;;8.43;3.63;;;17.10;99.90;;;;;;5056100;28;20040;-68
2022/07/01 07:30:19;;;;;;;9.13;3.70;;;17.20;99.90;;;;;;5051882;28;20543;-68
2022/07/01 07:32:45;;;;;;;11.65;4.15;;;17.30;99.90;;;;;;5052231;28;20072;-68
2022/07/01 07:35:11;;;;;;;17.52;4.22;;;17.50;99.90;;;;;;5053984;28;20037;-68
2022/07/01 07:37:37;;;;;;;12.15;3.17;;;17.50;99.90;;;;;;5060630;28;20044;-68
2022/07/01 07:40:06;;;;;;;9.40;2.63;;;17.60;99.90;;;;;;5059891;28;20037;-68
2022/07/01 07:42:35;;;;;;;15.45;2.50;;;17.80;99.90;;;;;;5057093;28;20077;-67
2022/07/01 07:45:03;;;;;;;8.57;2.75;;;17.80;99.90;;;;;;5057045;28;20525;-69
2022/07/01 07:47:32;;;;;;;14.38;2.75;;;18.00;99.90;;;;;;5060309;28;20071;-67
2022/07/01 07:50:02;;;;;;;9.32;2.83;;;18.20;99.90;;;;;;5057097;28;20049;-68
2022/07/01 07:52:28;;;;;;;6.25;2.15;;;18.40;99.90;;;;;;5058170;28;20045;-68
2022/07/01 07:54:53;;;;;;;8.20;2.10;;;18.50;99.90;;;;;;5054575;28;20044;-68
2022/07/01 07:57:19;;;;;;;13.32;2.38;;;18.70;99.90;;;;;;5052435;28;20492;-68
2022/07/01 07:59:45;;;;;;;9.23;2.55;;;18.70;99.90;;;;;;5059885;28;20052;-67
2022/07/01 08:02:11;;;;;;;8.07;2.38;;;18.90;99.90;;;;;;5054492;28;20055;-68
2022/07/01 08:04:36;;;;;;;8.30;2.30;;;19.30;99.90;;;;;;5054527;28;20517;-67
2022/07/01 08:07:02;;;;;;;7.50;1.80;;;19.50;99.90;;;;;;5057828;28;20148;-68
2022/07/01 08:09:28;;;;;;;8.32;2.20;;;19.40;99.90;;;;;;5057480;28;20056;-68
2022/07/01 08:11:54;;;;;;;8.50;1.92;;;19.30;99.90;;;;;;5054072;28;20041;-66
2022/07/01 08:14:19;;;;;;;9.68;2.22;;;19.20;99.90;;;;;;5055748;28;20045;-66
2022/07/01 08:16:45;;;;;;;8.95;2.13;;;19.10;99.90;;;;;;5057586;28;20045;-66
2022/07/01 08:19:10;;;;;;;3.60;1.70;;;19.00;99.90;;;;;;5056548;28;20036;-67
2022/07/01 08:21:36;;;;;;;9.68;1.98;;;18.90;99.90;;;;;;5056565;28;20052;-67
2022/07/01 08:24:02;;;;;;;12.30;2.90;;;18.80;99.90;;;;;;5060546;28;20043;-66
2022/07/01 08:26:28;;;;;;;10.05;2.00;;;18.80;99.90;;;;;;5057053;28;20111;-67
2022/07/01 08:28:53;;;;;;;5.78;1.95;;;18.80;99.90;;;;;;5056664;28;20044;-67
2022/07/01 08:31:19;;;;;;;5.55;1.90;;;18.80;99.90;;;;;;5056423;28;20516;-67
2022/07/01 08:33:45;;;;;;;5.18;1.60;;;18.80;99.90;;;;;;5058417;28;20140;-67
2022/07/01 08:36:13;;;;;;;5.20;1.85;;;18.80;99.90;;;;;;5062151;28;20471;-67
2022/07/01 08:38:38;;;;;;;5.90;1.95;;;18.80;99.90;;;;;;5065878;28;20049;-66
2022/07/01 08:41:04;;;;;;;7.50;2.08;;;18.90;99.90;;;;;;5060151;28;20086;-67
2022/07/01 08:43:30;;;;;;;8.05;1.90;;;19.00;99.90;;;;;;5059009;28;20063;-67
2022/07/01 08:45:58;;;;;;;8.80;3.08;;;19.10;99.90;;;;;;5057251;28;20037;-67
2022/07/01 08:48:26;;;;;;;7.00;2.13;;;19.20;99.90;;;;;;5053813;28;20039;-66
2022/07/01 08:50:52;;;;;;;12.43;2.55;;;19.40;99.90;;;;;;5052874;28;20139;-67
2022/07/01 08:53:18;;;;;;;8.45;2.30;;;19.50;99.90;;;;;;5054947;28;20477;-66
2022/07/01 08:58:28;;;;;;;6.75;1.80;;;19.90;99.90;;;;;;5057308;28;20058;-66
2022/07/01 09:01:15;;;;;;;7.95;1.90;;;20.40;99.90;;;;;;5059656;28;20045;-67
2022/07/01 09:03:47;;;;;;;8.48;2.10;;;20.60;99.90;;;;;;5057361;28;20492;-66
2022/07/01 09:06:17;;;;;;;6.03;1.88;;;20.40;99.90;;;;;;5053824;28;20041;-66
2022/07/01 09:08:44;;;;;;;6.72;2.58;;;20.00;99.90;;;;;;5058585;28;20131;-67
2022/07/01 09:11:16;;;;;;;5.40;1.83;;;19.70;99.90;;;;;;5057954;28;20059;-67
2022/07/01 09:13:43;;;;;;;7.82;1.75;;;19.40;99.90;;;;;;5060428;28;21857;-66
2022/07/01 09:16:13;;;;;;;6.38;1.52;;;19.20;99.90;;;;;;5061220;28;20535;-66
2022/07/01 09:18:39;;;;;;;4.88;1.30;;;19.10;99.90;;;;;;5056275;28;20534;-66
2022/07/01 09:21:13;;;;;;;9.65;1.80;;;19.10;99.90;;;;;;5059493;28;20053;-66
2022/07/01 09:23:39;;;;;;;7.78;1.45;;;19.30;99.90;;;;;;5060006;28;20128;-67
2022/07/01 09:26:05;;;;;;;4.63;1.80;;;19.50;99.90;;;;;;5052831;28;20377;-66
2022/07/01 09:28:31;;;;;;;7.90;2.20;;;19.80;99.90;;;;;;5056479;28;20052;-67
2022/07/01 09:30:58;;;;;;;4.88;1.20;;;20.00;99.90;;;;;;5061833;28;20040;-66
2022/07/01 09:33:26;;;;;;;8.15;1.83;;;19.90;99.90;;;;;;5056973;28;20407;-67
2022/07/01 09:35:54;;;;;;;5.35;1.30;;;19.80;99.90;;;;;;5051127;28;20064;-67
2022/07/01 09:38:21;;;;;;;5.28;1.15;;;19.70;99.90;;;;;;5054863;28;20056;-67
2022/07/01 09:40:50;;;;;;;4.90;1.30;;;19.50;99.90;;;;;;5053181;28;20047;-67
2022/07/01 09:43:17;;;;;;;5.45;1.17;;;19.30;99.90;;;;;;5047497;28;20056;-67
2022/07/01 09:46:02;;;;;;;3.92;1.30;;;19.00;99.90;;;;;;5049350;28;20044;-67
2022/07/01 09:48:34;;;;;;;2.47;1.05;;;18.90;99.90;;;;;;5054749;28;20052;-67
2022/07/01 09:51:01;;;;;;;6.95;1.30;;;18.70;99.90;;;;;;5055271;28;20056;-66
2022/07/01 09:53:27;;;;;;;4.05;1.00;;;18.70;99.90;;;;;;5054168;28;20037;-67
2022/07/01 09:55:53;;;;;;;4.78;1.50;;;18.70;99.90;;;;;;5062725;28;20123;-67
2022/07/01 09:58:20;;;;;;;6.80;2.00;;;18.70;99.90;;;;;;5059623;28;20437;-66
2022/07/01 10:00:45;;;;;;;5.18;1.80;;;18.70;99.90;;;;;;5065857;28;20047;-67
2022/07/01 10:03:12;;;;;;;5.20;2.03;;;18.70;99.90;;;;;;5057557;28;20411;-67
2022/07/01 10:05:46;;;;;;;10.75;2.45;;;18.70;99.90;;;;;;5060030;28;20048;-68
2022/07/01 10:08:50;;;;;;;3.90;1.50;;;18.60;99.90;;;;;;5059657;28;20053;-67
2022/07/01 10:11:38;;;;;;;5.70;1.70;;;18.70;99.90;;;;;;5053435;28;20072;-67
2022/07/01 10:14:04;;;;;;;5.80;1.58;;;18.90;99.90;;;;;;5059237;28;20052;-66
2022/07/01 10:16:32;;;;;;;5.53;1.65;;;18.90;99.90;;;;;;5056961;28;20048;-67
2022/07/01 10:18:58;;;;;;;5.82;1.67;;;19.00;99.90;;;;;;5058512;28;20253;-67
2022/07/01 10:21:30;;;;;;;6.72;1.45;;;19.10;99.90;;;;;;5061842;28;20142;-67
2022/07/01 10:24:16;;;;;;;5.00;2.05;;;19.10;99.90;;;;;;5054461;28;20068;-67
2022/07/01 10:26:43;;;;;;;5.90;1.67;;;19.20;99.90;;;;;;5056579;28;20059;-67
2022/07/01 10:29:31;;;;;;;4.30;1.50;;;19.20;99.90;;;;;;5058726;28;20036;-67
2022/07/01 10:32:01;;;;;;;5.90;1.85;;;19.20;99.90;;;;;;5058274;28;20317;-67
2022/07/01 10:34:38;;;;;;;4.57;2.00;;;19.10;99.90;;;;;;5055939;28;20626;-68
2022/07/01 10:37:08;;;;;;;5.75;1.90;;;18.90;99.90;;;;;;5058609;28;20053;-66
2022/07/01 10:39:59;;;;;;;5.07;2.20;;;18.90;99.90;;;;;;5062817;28;20414;-67
2022/07/01 10:42:32;;;;;;;3.85;2.17;;;19.20;99.90;;;;;;5051084;28;20056;-69
2022/07/01 10:45:04;;;;;;;3.97;1.25;;;19.30;99.90;;;;;;5059671;28;20105;-68
2022/07/01 10:47:30;;;;;;;4.18;1.27;;;19.40;99.90;;;;;;5055753;28;20040;-68
2022/07/01 10:49:58;;;;;;;3.92;1.55;;;19.20;99.90;;;;;;5053574;28;20059;-68
2022/07/01 10:52:24;;;;;;;4.40;1.65;;;19.00;99.90;;;;;;5050762;28;20044;-68
2022/07/01 10:55:00;;;;;;;4.05;1.33;;;18.90;99.90;;;;;;5055323;28;20058;-67
2022/07/01 10:57:42;;;;;;;3.55;1.58;;;18.80;99.90;;;;;;5050271;28;20496;-70
2022/07/01 11:00:31;;;;;;;4.90;1.20;;;18.80;99.90;;;;;;5056391;28;20160;-68
2022/07/01 11:03:05;;;;;;;4.35;1.30;;;18.80;99.90;;;;;;5057889;28;20041;-68
2022/07/01 11:05:31;;;;;;;4.00;1.40;;;19.00;99.90;;;;;;5048561;28;20041;-69
2022/07/01 11:07:57;;;;;;;3.65;1.20;;;19.30;99.90;;;;;;5054909;28;20068;-68
2022/07/01 11:10:22;;;;;;;6.28;1.45;;;19.50;99.90;;;;;;5054437;28;20045;-68
2022/07/01 11:12:49;;;;;;;6.22;1.10;;;19.70;99.90;;;;;;5050444;28;20052;-69
2022/07/01 11:15:15;;;;;;;6.35;1.30;;;20.00;99.90;;;;;;5057261;28;20043;-69
2022/07/01 11:17:47;;;;;;;4.05;1.48;;;20.10;99.90;;;;;;5061113;28;20408;-69
2022/07/01 11:20:13;;;;;;;4.97;1.37;;;20.30;99.90;;;;;;5057510;28;20036;-69
2022/07/01 11:22:40;;;;;;;5.18;1.50;;;20.20;99.90;;;;;;5052854;28;20299;-68
2022/07/01 11:25:08;;;;;;;4.68;1.70;;;20.30;99.90;;;;;;5054079;28;20032;-69
2022/07/01 11:27:34;;;;;;;3.40;1.15;;;20.40;99.90;;;;;;5049500;28;20420;-69
2022/07/01 11:30:14;;;;;;;7.03;1.75;;;20.50;99.90;;;;;;5053773;28;20484;-69
2022/07/01 11:32:50;;;;;;;3.72;1.40;;;20.50;99.90;;;;;;5053064;28;20056;-69
2022/07/01 11:41:02;;;;;;;6.45;1.73;;;20.60;99.90;;;;;;5056609;28;20040;-69
2022/07/01 11:43:34;;;;;;;7.38;2.20;;;20.60;99.90;;;;;;5053618;28;20045;-69
2022/07/01 11:46:01;;;;;;;5.72;1.30;;;20.50;99.90;;;;;;5055766;28;20056;-68
2022/07/01 11:48:40;;;;;;;6.80;1.20;;;20.40;99.90;;;;;;5052524;28;20041;-69
2022/07/01 11:51:15;;;;;;;4.10;1.33;;;20.50;99.90;;;;;;5050850;28;20090;-70
2022/07/01 11:53:43;;;;;;;5.55;1.00;;;20.60;99.90;;;;;;5064399;28;20044;-70
2022/07/01 11:56:10;;;;;;;3.28;0.80;;;20.70;99.90;;;;;;5050435;28;20215;-70
2022/07/01 11:58:52;;;;;;;4.32;1.05;;;20.90;99.90;;;;;;5054515;28;20052;-70
2022/07/01 12:01:29;;;;;;;4.30;1.08;;;21.00;99.90;;;;;;5055805;28;20531;-71
2022/07/01 12:03:57;;;;;;;4.47;0.90;;;21.30;99.90;;;;;;5056519;28;20051;-70
2022/07/01 12:06:24;;;;;;;3.63;0.93;;;21.40;99.90;;;;;;5057408;28;20515;-69
2022/07/01 12:08:50;;;;;;;5.25;1.10;;;21.30;99.90;;;;;;5062651;28;20302;-69
2022/07/01 12:11:17;;;;;;;4.72;1.42;;;21.10;99.90;;;;;;5064143;28;20515;-69
2022/07/01 12:13:50;;;;;;;7.72;1.08;;;21.20;99.90;;;;;;5062950;28;20057;-71
2022/07/01 12:16:16;;;;;;;2.33;0.88;;;21.40;99.90;;;;;;5068013;28;20048;-71
2022/07/01 12:19:02;;;;;;;7.60;1.77;;;21.60;99.90;;;;;;5065577;28;20066;-71
2022/07/01 12:21:29;;;;;;;3.95;0.82;;;21.70;99.90;;;;;;5060170;28;20051;-71
2022/07/01 12:24:07;;;;;;;2.35;0.82;;;21.70;99.90;;;;;;5075411;28;20142;-71
2022/07/01 12:26:33;;;;;;;6.00;1.48;;;21.80;99.90;;;;;;5056354;28;20048;-70
2022/07/01 12:28:59;;;;;;;7.60;1.10;;;21.90;99.90;;;;;;5061057;28;20116;-77
2022/07/01 12:31:25;;;;;;;5.20;1.05;;;22.00;99.90;;;;;;5054094;28;20037;-70
2022/07/01 12:33:52;;;;;;;3.70;1.10;;;22.10;99.90;;;;;;5061280;28;20091;-71
2022/07/01 12:36:18;;;;;;;3.45;1.20;;;22.20;99.90;;;;;;5059712;28;20951;-70
2022/07/01 12:38:44;;;;;;;7.57;1.08;;;22.10;99.90;;;;;;5058753;28;20124;-70
2022/07/01 12:41:28;;;;;;;5.13;0.95;;;22.00;99.90;;;;;;5057549;28;20164;-70
2022/07/01 12:43:54;;;;;;;7.88;1.52;;;21.70;99.90;;;;;;5054361;28;20056;-70
2022/07/01 12:46:32;;;;;;;7.63;1.27;;;21.40;99.90;;;;;;5059922;28;20040;-70
2022/07/01 12:48:59;;;;;;;4.68;1.10;;;21.10;99.90;;;;;;5056803;28;20033;-71
2022/07/01 12:51:32;;;;;;;5.07;1.23;;;20.90;99.90;;;;;;5055181;28;20040;-71
2022/07/01 12:53:59;;;;;;;5.05;1.40;;;20.80;99.90;;;;;;5060872;28;20144;-71
2022/07/01 12:56:27;;;;;;;4.18;1.30;;;20.70;99.90;;;;;;5059195;28;20040;-71
2022/07/01 12:58:54;;;;;;;7.60;1.52;;;20.70;99.90;;;;;;5056531;28;22567;-71
2022/07/01 13:01:20;;;;;;;5.85;1.38;;;20.70;99.90;;;;;;5059271;28;20037;-71
2022/07/01 13:03:47;;;;;;;5.88;1.42;;;20.70;99.90;;;;;;5057848;28;20538;-71
2022/07/01 13:06:13;;;;;;;6.55;1.60;;;21.00;99.90;;;;;;5060074;28;20591;-71
2022/07/01 13:08:39;;;;;;;7.95;1.70;;;21.20;99.90;;;;;;5063243;28;20044;-71